createdAt,value
2022-10-06T00:01:09.835Z,13.54
2022-10-06T00:04:52.633Z,13.53
2022-10-06T00:08:37.434Z,13.53
2022-10-06T00:12:20.139Z,13.52
2022-10-06T00:16:04.238Z,13.50
2022-10-06T00:19:48.606Z,13.50
2022-10-06T00:23:31.305Z,13.48
2022-10-06T00:27:13.968Z,13.43
2022-10-06T00:30:57.057Z,13.39
2022-10-06T00:34:39.731Z,13.35
2022-10-06T00:38:23.741Z,13.31
2022-10-06T00:42:06.586Z,13.28
2022-10-06T00:45:50.052Z,13.24
2022-10-06T00:49:36.955Z,13.22
2022-10-06T00:53:19.635Z,13.20
2022-10-06T00:57:04.491Z,13.19
2022-10-06T01:00:47.346Z,13.17
2022-10-06T01:04:32.868Z,13.15
2022-10-06T01:08:16.367Z,13.13
2022-10-06T01:12:01.579Z,13.10
2022-10-06T01:15:49.309Z,13.04
2022-10-06T01:19:39.922Z,13.01
2022-10-06T01:23:24.200Z,12.99
2022-10-06T01:27:09.528Z,12.98
2022-10-06T01:30:54.918Z,12.95
2022-10-06T01:34:37.790Z,12.96
2022-10-06T01:38:21.914Z,12.98
2022-10-06T01:42:06.341Z,12.92
2022-10-06T01:45:55.275Z,12.89
2022-10-06T01:49:37.967Z,12.87
2022-10-06T01:53:20.827Z,12.84
2022-10-06T01:57:03.510Z,12.80
2022-10-06T02:00:48.065Z,12.77
2022-10-06T02:04:30.710Z,12.75
2022-10-06T02:08:13.420Z,12.70
2022-10-06T02:11:56.108Z,12.63
2022-10-06T02:15:38.808Z,12.57
2022-10-06T02:19:23.176Z,12.55
2022-10-06T02:23:05.857Z,12.62
2022-10-06T02:26:48.538Z,12.61
2022-10-06T02:30:31.277Z,12.56
2022-10-06T02:34:14.011Z,12.46
2022-10-06T02:37:58.315Z,12.40
2022-10-06T02:41:41.125Z,12.40
2022-10-06T02:45:23.773Z,12.42
2022-10-06T02:49:06.455Z,12.43
2022-10-06T02:52:49.142Z,12.46
2022-10-06T02:56:33.250Z,12.50
2022-10-06T03:00:16.120Z,12.53
2022-10-06T03:03:58.889Z,12.57
2022-10-06T03:07:41.601Z,12.54
2022-10-06T03:11:25.835Z,12.52
2022-10-06T03:15:10.690Z,12.47
2022-10-06T03:18:54.723Z,12.47
2022-10-06T03:22:37.474Z,12.44
2022-10-06T03:26:21.902Z,12.39
2022-10-06T03:30:06.547Z,12.39
2022-10-06T03:33:51.744Z,12.33
2022-10-06T03:37:34.456Z,12.29
2022-10-06T03:41:18.472Z,12.26
2022-10-06T03:45:01.191Z,12.17
2022-10-06T03:48:43.901Z,12.08
2022-10-06T03:52:27.962Z,12.03
2022-10-06T03:56:14.698Z,12.01
2022-10-06T03:59:59.813Z,11.96
2022-10-06T04:03:42.594Z,11.91
2022-10-06T04:07:25.462Z,11.93
2022-10-06T04:11:11.385Z,11.89
2022-10-06T04:14:57.870Z,11.88
2022-10-06T04:18:43.374Z,11.87
2022-10-06T04:22:26.065Z,11.89
2022-10-06T04:26:12.985Z,11.91
2022-10-06T04:29:56.307Z,11.89
2022-10-06T04:33:39.090Z,11.90
2022-10-06T04:37:21.856Z,11.86
2022-10-06T04:41:08.576Z,11.83
2022-10-06T04:44:52.670Z,11.82
2022-10-06T04:48:35.464Z,11.77
2022-10-06T04:52:18.158Z,11.73
2022-10-06T04:56:02.511Z,11.72
2022-10-06T05:00:17.407Z,11.73
2022-10-06T05:04:03.097Z,11.68
2022-10-06T05:07:46.200Z,11.67
2022-10-06T05:11:29.385Z,11.70
2022-10-06T05:15:12.361Z,11.64
2022-10-06T05:18:55.359Z,11.67
2022-10-06T05:22:39.505Z,11.68
2022-10-06T05:26:36.779Z,11.70
2022-10-06T05:30:19.635Z,11.70
2022-10-06T05:34:02.404Z,11.75
2022-10-06T05:37:46.508Z,11.79
2022-10-06T05:41:31.496Z,11.76
2022-10-06T05:45:15.477Z,11.81
2022-10-06T05:48:59.301Z,11.83
2022-10-06T05:52:42.155Z,11.85
2022-10-06T05:56:27.240Z,11.90
2022-10-06T06:00:11.017Z,11.95
2022-10-06T06:03:54.998Z,11.97
2022-10-06T06:07:37.703Z,12.01
2022-10-06T06:11:25.233Z,12.09
2022-10-06T06:15:28.300Z,12.16
2022-10-06T06:19:12.729Z,12.24
2022-10-06T06:22:55.450Z,12.27
2022-10-06T06:26:38.922Z,12.29
2022-10-06T06:30:23.933Z,12.36
2022-10-06T06:34:07.693Z,12.45
2022-10-06T06:37:50.430Z,12.51
2022-10-06T06:41:35.950Z,12.62
2022-10-06T06:45:18.680Z,12.72
2022-10-06T06:49:05.191Z,12.79
2022-10-06T06:52:47.909Z,12.91
2022-10-06T06:56:35.098Z,13.03
2022-10-06T07:00:18.202Z,13.19
2022-10-06T07:04:02.213Z,13.39
2022-10-06T07:07:45.058Z,13.62
2022-10-06T07:11:29.654Z,13.81
2022-10-06T07:15:30.522Z,14.08
2022-10-06T07:19:32.905Z,14.50
2022-10-06T07:23:46.662Z,14.50
2022-10-06T07:27:29.965Z,14.55
2022-10-06T07:31:12.695Z,14.73
2022-10-06T07:34:58.118Z,14.76
2022-10-06T07:38:41.588Z,14.82
2022-10-06T07:42:24.289Z,14.88
2022-10-06T07:46:10.952Z,15.03
2022-10-06T07:49:56.034Z,15.24
2022-10-06T07:53:40.153Z,15.37
2022-10-06T07:57:23.066Z,15.41
2022-10-06T08:01:06.643Z,15.51
2022-10-06T08:04:49.405Z,15.66
2022-10-06T08:08:33.090Z,15.78
2022-10-06T08:12:40.925Z,15.81
2022-10-06T08:16:30.123Z,15.85
2022-10-06T08:20:13.986Z,16.10
2022-10-06T08:23:58.120Z,16.19
2022-10-06T08:27:44.132Z,16.27
2022-10-06T08:31:26.908Z,16.35
2022-10-06T08:35:09.919Z,16.44
2022-10-06T08:38:52.929Z,16.55
2022-10-06T08:42:42.338Z,16.66
2022-10-06T08:46:31.765Z,16.57
2022-10-06T08:50:14.516Z,16.58
2022-10-06T08:54:05.300Z,16.61
2022-10-06T08:57:55.246Z,16.78
2022-10-06T09:01:42.996Z,16.82
2022-10-06T09:05:28.164Z,16.95
2022-10-06T09:09:33.635Z,16.87
2022-10-06T09:13:54.292Z,16.87
2022-10-06T09:17:40.727Z,16.99
2022-10-06T09:21:30.300Z,16.96
2022-10-06T09:25:17.243Z,16.95
2022-10-06T09:29:00.450Z,17.06
2022-10-06T09:32:48.216Z,17.21
2022-10-06T09:36:30.978Z,17.23
2022-10-06T09:40:29.235Z,17.17
2022-10-06T09:44:23.202Z,17.40
2022-10-06T09:48:19.006Z,17.37
2022-10-06T09:52:05.458Z,17.37
2022-10-06T09:55:54.522Z,17.37
2022-10-06T09:59:42.614Z,17.38
2022-10-06T10:03:30.366Z,17.42
2022-10-06T10:07:16.807Z,17.47
2022-10-06T10:11:27.691Z,17.59
2022-10-06T10:15:25.834Z,17.58
2022-10-06T10:19:23.841Z,17.65
2022-10-06T10:23:20.653Z,17.66
2022-10-06T10:27:09.149Z,17.74
2022-10-06T10:31:02.457Z,17.70
2022-10-06T10:35:06.258Z,17.72
2022-10-06T10:38:49.594Z,17.77
2022-10-06T10:42:35.153Z,17.89
2022-10-06T10:46:24.080Z,17.98
2022-10-06T10:50:12.547Z,18.06
2022-10-06T10:53:57.801Z,18.13
2022-10-06T10:57:43.955Z,18.27
2022-10-06T11:01:33.384Z,18.56
2022-10-06T11:05:30.271Z,18.65
2022-10-06T11:09:14.921Z,18.79
2022-10-06T11:13:17.480Z,18.92
2022-10-06T11:17:05.074Z,19.03
2022-10-06T11:20:52.394Z,19.23
2022-10-06T11:24:42.279Z,19.41
2022-10-06T11:28:29.474Z,19.59
2022-10-06T11:32:20.138Z,19.56
2022-10-06T11:36:04.706Z,19.50
2022-10-06T11:39:50.259Z,19.75
2022-10-06T11:43:37.438Z,19.81
2022-10-06T11:47:35.212Z,19.92
2022-10-06T11:51:30.802Z,20.06
2022-10-06T11:55:23.760Z,20.19
2022-10-06T11:59:35.935Z,20.21
2022-10-06T12:03:55.088Z,20.24
2022-10-06T12:08:11.048Z,20.33
2022-10-06T12:11:55.994Z,20.55
2022-10-06T12:20:13.877Z,21.02
2022-10-06T12:24:03.025Z,21.13
2022-10-06T12:27:58.311Z,21.24
2022-10-06T12:31:47.726Z,21.35
2022-10-06T12:35:33.702Z,21.49
2022-10-06T12:39:25.024Z,21.59
2022-10-06T12:43:44.170Z,21.81
2022-10-06T12:47:35.621Z,21.92
2022-10-06T12:51:25.172Z,21.62
2022-10-06T12:55:22.385Z,21.24
2022-10-06T12:59:28.282Z,20.96
2022-10-06T13:03:18.812Z,20.88
2022-10-06T13:07:07.601Z,21.06
2022-10-06T13:10:51.452Z,21.30
2022-10-06T13:14:34.123Z,21.48
2022-10-06T13:18:19.578Z,21.72
2022-10-06T13:22:03.488Z,21.99
2022-10-06T13:25:49.499Z,22.14
2022-10-06T13:29:32.826Z,22.26
2022-10-06T13:33:15.502Z,22.34
2022-10-06T13:37:00.101Z,22.26
2022-10-06T13:40:45.229Z,22.19
2022-10-06T13:44:32.249Z,22.04
2022-10-06T13:48:17.065Z,22.01
2022-10-06T13:52:08.777Z,21.99
2022-10-06T13:55:54.193Z,22.32
2022-10-06T13:59:38.350Z,22.77
2022-10-06T14:07:26.188Z,23.24
2022-10-06T14:11:09.928Z,23.22
2022-10-06T14:14:53.984Z,23.09
2022-10-06T14:18:39.317Z,23.01
2022-10-06T14:22:34.302Z,22.76
2022-10-06T14:26:18.590Z,22.82
2022-10-06T14:30:01.810Z,22.90
2022-10-06T14:33:45.120Z,22.91
2022-10-06T14:37:27.786Z,22.82
2022-10-06T14:41:15.528Z,22.82
2022-10-06T14:45:01.359Z,22.82
2022-10-06T14:48:44.269Z,22.51
2022-10-06T14:52:27.011Z,22.30
2022-10-06T14:56:14.251Z,22.18
2022-10-06T14:59:57.260Z,22.02
2022-10-06T15:03:41.295Z,21.83
2022-10-06T15:07:43.599Z,21.78
2022-10-06T15:11:29.273Z,21.79
2022-10-06T15:15:12.152Z,21.91
2022-10-06T15:18:55.026Z,22.07
2022-10-06T15:22:37.772Z,22.27
2022-10-06T15:26:38.051Z,22.36
2022-10-06T15:30:23.146Z,22.43
2022-10-06T15:34:07.138Z,22.51
2022-10-06T15:37:49.794Z,22.56
2022-10-06T15:41:33.826Z,22.53
2022-10-06T15:45:18.267Z,22.44
2022-10-06T15:49:06.834Z,22.38
2022-10-06T15:52:49.598Z,22.36
2022-10-06T15:56:32.796Z,22.31
2022-10-06T16:00:16.664Z,22.31
2022-10-06T16:04:02.602Z,22.24
2022-10-06T16:07:46.676Z,22.18
2022-10-06T16:11:59.197Z,21.98
2022-10-06T16:15:42.041Z,21.78
2022-10-06T16:19:25.873Z,21.59
2022-10-06T16:23:09.918Z,21.38
2022-10-06T16:26:54.622Z,21.19
2022-10-06T16:30:37.308Z,20.94
2022-10-06T16:34:20.042Z,20.68
2022-10-06T16:38:02.765Z,20.41
2022-10-06T16:41:47.210Z,20.17
2022-10-06T16:45:29.947Z,19.96
2022-10-06T16:49:12.941Z,19.72
2022-10-06T16:52:58.211Z,19.52
2022-10-06T16:56:42.020Z,19.35
2022-10-06T17:00:26.628Z,19.20
2022-10-06T17:04:10.968Z,19.01
2022-10-06T17:07:58.947Z,18.86
2022-10-06T17:11:42.888Z,18.68
2022-10-06T17:15:31.283Z,18.53
2022-10-06T17:19:17.451Z,18.39
2022-10-06T17:23:00.211Z,18.23
2022-10-06T17:26:49.845Z,18.11
2022-10-06T17:30:34.028Z,18.00
2022-10-06T17:34:20.658Z,17.87
2022-10-06T17:38:04.637Z,17.78
2022-10-06T17:41:54.906Z,17.68
2022-10-06T17:45:40.465Z,17.57
2022-10-06T17:49:24.887Z,17.46
2022-10-06T17:53:07.837Z,17.36
2022-10-06T17:57:05.408Z,17.29
2022-10-06T18:00:49.545Z,17.20
2022-10-06T18:04:33.750Z,17.14
2022-10-06T18:08:17.061Z,17.06
2022-10-06T18:12:10.481Z,17.00
2022-10-06T18:15:54.490Z,16.96
2022-10-06T18:19:37.277Z,16.88
2022-10-06T18:23:19.927Z,16.86
2022-10-06T18:27:15.855Z,16.82
2022-10-06T18:30:59.958Z,16.78
2022-10-06T18:38:46.990Z,16.66
2022-10-06T18:42:29.750Z,16.62
2022-10-06T18:46:32.153Z,16.56
2022-10-06T18:50:41.293Z,16.54
2022-10-06T18:54:27.038Z,16.52
2022-10-06T18:58:10.099Z,16.48
2022-10-06T19:01:55.934Z,16.48
2022-10-06T19:05:38.761Z,16.45
2022-10-06T19:09:23.088Z,16.41
2022-10-06T19:13:05.853Z,16.38
2022-10-06T19:16:51.111Z,16.35
2022-10-06T19:20:35.197Z,16.29
2022-10-06T19:24:20.202Z,16.22
2022-10-06T19:28:03.122Z,16.17
2022-10-06T19:31:47.944Z,16.09
2022-10-06T19:35:30.597Z,15.99
2022-10-06T19:39:14.676Z,15.93
2022-10-06T19:42:57.395Z,15.87
2022-10-06T19:46:47.609Z,15.86
2022-10-06T19:50:30.580Z,15.82
2022-10-06T19:54:14.770Z,15.77
2022-10-06T19:57:57.567Z,15.76
2022-10-06T20:01:42.202Z,15.72
2022-10-06T20:05:25.507Z,15.67
2022-10-06T20:09:09.109Z,15.65
2022-10-06T20:12:53.219Z,15.60
2022-10-06T20:16:36.952Z,15.52
2022-10-06T20:20:20.500Z,15.43
2022-10-06T20:24:06.861Z,15.37
2022-10-06T20:27:50.255Z,15.34
2022-10-06T20:32:05.330Z,15.36
2022-10-06T20:35:48.140Z,15.34
2022-10-06T20:39:49.449Z,15.33
2022-10-06T20:43:33.461Z,15.33
2022-10-06T20:47:17.466Z,15.32
2022-10-06T20:51:00.135Z,15.35
2022-10-06T20:54:43.693Z,15.37
2022-10-06T20:58:26.587Z,15.38
2022-10-06T21:02:25.820Z,15.37
2022-10-06T21:06:08.601Z,15.30
2022-10-06T21:09:52.264Z,15.21
2022-10-06T21:13:35.216Z,15.24
2022-10-06T21:17:31.598Z,15.18
2022-10-06T21:21:15.006Z,15.19
2022-10-06T21:24:57.686Z,15.24
2022-10-06T21:28:41.060Z,15.32
2022-10-06T21:32:32.660Z,15.37
2022-10-06T21:36:17.226Z,15.40
2022-10-06T21:40:02.279Z,15.43
2022-10-06T21:43:45.302Z,15.43
2022-10-06T21:51:42.125Z,15.41
2022-10-06T21:55:24.773Z,15.40
2022-10-06T21:59:07.657Z,15.40
2022-10-06T22:02:50.332Z,15.39
2022-10-06T22:06:35.036Z,15.41
2022-10-06T22:10:19.125Z,15.42
2022-10-06T22:14:04.162Z,15.39
2022-10-06T22:17:47.707Z,15.38
2022-10-06T22:21:31.777Z,15.37
2022-10-06T22:25:14.482Z,15.38
2022-10-06T22:28:59.142Z,15.38
2022-10-06T22:32:41.794Z,15.40
2022-10-06T22:36:25.225Z,15.42
2022-10-06T22:40:09.554Z,15.43
2022-10-06T22:43:57.173Z,15.48
2022-10-06T22:47:41.399Z,15.56
2022-10-06T22:51:24.406Z,15.63
2022-10-06T22:55:08.084Z,15.68
2022-10-06T22:58:50.870Z,15.66
2022-10-06T23:02:33.638Z,15.67
2022-10-06T23:06:18.498Z,15.68
2022-10-06T23:10:01.207Z,15.70
2022-10-06T23:13:44.463Z,15.70
2022-10-06T23:17:27.125Z,15.70
2022-10-06T23:21:11.206Z,15.72
2022-10-06T23:24:55.266Z,15.73
2022-10-06T23:28:38.455Z,15.71
2022-10-06T23:32:21.322Z,15.72
2022-10-06T23:36:05.679Z,15.71
2022-10-06T23:39:48.500Z,15.67
2022-10-06T23:43:32.577Z,15.67
2022-10-06T23:47:15.268Z,15.68
2022-10-06T23:50:59.305Z,15.70
2022-10-06T23:54:42.031Z,15.70
2022-10-06T23:58:24.845Z,15.70
